Time;durP1;ratioP1;P1;durP2;ratioP2;P2;SDS_P1;SDS_P2;PMS_P1;PMS_P2;Temp;Humidity;BMP_temperature;BMP_pressure;BME280_temperature;BME280_humidity;BME280_pressure;Samples;Min_cycle;Max_cycle;Signal;HPM_P1;HPM_P2
2022/10/02 00:00:17;;;;;;;6.03;2.75;;;;;;;;;;10074535;28;20087;-72
2022/10/02 00:05:20;;;;;;;10.38;3.08;;;;;;;;;;10081490;29;20058;-68
2022/10/02 00:10:21;;;;;;;7.63;3.20;;;;;;;;;;10079538;29;20102;-68
2022/10/02 00:15:22;;;;;;;10.43;3.35;;;;;;;;;;10081462;29;20091;-70
2022/10/02 00:20:24;;;;;;;6.07;3.10;;;;;;;;;;10081828;28;20075;-73
2022/10/02 00:25:26;;;;;;;6.97;3.28;;;;;;;;;;10080277;28;20066;-70
2022/10/02 00:30:24;;;;;;;6.20;2.85;;;;;;;;;;10080986;29;20113;-71
2022/10/02 00:35:36;;;;;;;8.10;2.60;;;;;;;;;;10080416;29;20058;-70
2022/10/02 00:40:39;;;;;;;9.57;3.92;;;;;;;;;;10081093;29;20047;-70
2022/10/02 00:45:56;;;;;;;8.50;2.50;;;;;;;;;;10080490;29;20558;-71
2022/10/02 00:51:01;;;;;;;9.70;3.28;;;;;;;;;;10079885;29;20098;-69
2022/10/02 00:56:06;;;;;;;5.93;3.00;;;;;;;;;;10079826;29;20062;-70
2022/10/02 01:01:04;;;;;;;;;;;;;;;;;;10080359;29;20055;-72
2022/10/02 01:06:04;;;;;;;6.65;3.22;;;;;;;;;;10079361;29;20387;-72
2022/10/02 01:11:03;;;;;;;6.10;2.63;;;;;;;;;;10078715;29;20083;-69
2022/10/02 01:16:04;;;;;;;9.98;2.53;;;;;;;;;;10078496;28;20093;-72
2022/10/02 01:21:06;;;;;;;5.95;3.28;;;;;;;;;;10078673;29;20476;-71
2022/10/02 01:26:05;;;;;;;11.82;3.15;;;;;;;;;;10078602;29;20048;-72
2022/10/02 01:31:06;;;;;;;5.10;2.97;;;;;;;;;;10078537;29;20082;-71
2022/10/02 01:36:05;;;;;;;7.00;3.75;;;;;;;;;;10077841;29;20079;-74
2022/10/02 01:41:06;;;;;;;7.90;2.90;;;;;;;;;;10078357;29;20051;-70
2022/10/02 01:46:13;;;;;;;6.97;2.70;;;;;;;;;;10077925;29;20054;-71
2022/10/02 01:51:29;;;;;;;5.18;2.80;;;;;;;;;;10077472;29;20075;-72
2022/10/02 01:56:34;;;;;;;6.35;2.78;;;;;;;;;;10077313;29;20051;-71
2022/10/02 02:01:39;;;;;;;5.82;2.90;;;;;;;;;;10077552;29;20468;-72
2022/10/02 02:06:41;;;;;;;5.00;2.75;;;;;;;;;;10076740;29;20078;-70
2022/10/02 02:11:44;;;;;;;7.40;2.85;;;;;;;;;;10075725;29;20525;-72
2022/10/02 02:16:43;;;;;;;6.82;3.42;;;;;;;;;;10076317;29;20051;-71
2022/10/02 02:21:44;;;;;;;5.75;3.28;;;;;;;;;;10076256;29;20047;-71
2022/10/02 02:26:45;;;;;;;4.75;3.13;;;;;;;;;;10074884;28;20087;-72
2022/10/02 02:31:47;;;;;;;5.15;2.92;;;;;;;;;;10056681;29;20087;-72
2022/10/02 02:36:50;;;;;;;7.28;2.85;;;;;;;;;;10074264;29;20477;-72
2022/10/02 02:41:55;;;;;;;5.57;2.80;;;;;;;;;;10075610;29;20440;-71
2022/10/02 02:47:05;;;;;;;6.72;3.92;;;;;;;;;;10075819;28;20452;-72
2022/10/02 02:52:07;;;;;;;4.45;3.45;;;;;;;;;;10075509;28;20066;-72
2022/10/02 02:57:08;;;;;;;5.00;3.42;;;;;;;;;;10076432;29;20055;-72
2022/10/02 03:02:06;;;;;;;5.65;3.75;;;;;;;;;;10058078;29;20055;-72
2022/10/02 03:07:05;;;;;;;6.50;3.47;;;;;;;;;;10074728;28;20436;-71
2022/10/02 03:12:12;;;;;;;4.70;3.13;;;;;;;;;;10076156;29;20074;-73
2022/10/02 03:17:18;;;;;;;3.10;2.83;;;;;;;;;;10076448;29;20058;-73
2022/10/02 03:22:20;;;;;;;2.65;2.45;;;;;;;;;;10042609;29;20153;-73
2022/10/02 03:27:23;;;;;;;4.28;2.42;;;;;;;;;;10051774;29;20087;-73
2022/10/02 03:32:22;;;;;;;3.72;2.58;;;;;;;;;;10052373;28;20090;-73
2022/10/02 03:37:20;;;;;;;2.08;1.85;;;;;;;;;;10076254;28;20062;-73
2022/10/02 03:42:23;;;;;;;2.60;2.10;;;;;;;;;;10066543;29;20086;-73
2022/10/02 03:47:21;;;;;;;2.40;2.20;;;;;;;;;;10079248;28;20079;-72
2022/10/02 03:52:20;;;;;;;4.22;2.03;;;;;;;;;;10062660;29;20055;-72
2022/10/02 03:57:22;;;;;;;6.20;2.50;;;;;;;;;;10080507;29;20091;-72
2022/10/02 04:02:24;;;;;;;2.30;2.10;;;;;;;;;;10078693;29;20493;-72
2022/10/02 04:07:24;;;;;;;3.33;2.25;;;;;;;;;;10078158;29;20098;-72
2022/10/02 04:12:28;;;;;;;8.13;2.20;;;;;;;;;;10077384;29;20093;-72
2022/10/02 04:17:28;;;;;;;5.43;2.42;;;;;;;;;;10081763;29;20547;-72
2022/10/02 04:22:32;;;;;;;3.80;2.35;;;;;;;;;;10081953;29;20421;-72
2022/10/02 04:27:34;;;;;;;5.10;2.25;;;;;;;;;;10080948;29;20082;-72
2022/10/02 04:32:33;;;;;;;3.53;2.10;;;;;;;;;;10080884;29;20086;-71
2022/10/02 04:37:37;;;;;;;3.30;2.13;;;;;;;;;;10080505;29;20113;-72
2022/10/02 04:42:42;;;;;;;3.03;2.10;;;;;;;;;;10080667;29;20059;-72
2022/10/02 04:47:51;;;;;;;4.47;2.15;;;;;;;;;;10080143;28;20059;-72
2022/10/02 04:53:02;;;;;;;2.72;2.33;;;;;;;;;;10079933;29;20079;-72
2022/10/02 04:58:17;;;;;;;3.60;2.92;;;;;;;;;;10080029;29;20063;-72
2022/10/02 05:03:24;;;;;;;5.13;2.90;;;;;;;;;;10080116;29;20086;-71
2022/10/02 05:08:38;;;;;;;5.50;2.42;;;;;;;;;;10079828;29;20089;-72
2022/10/02 05:13:44;;;;;;;4.95;2.65;;;;;;;;;;10078595;29;20480;-71
2022/10/02 05:18:53;;;;;;;5.10;3.22;;;;;;;;;;10078487;29;20095;-70
2022/10/02 05:24:00;;;;;;;3.22;2.95;;;;;;;;;;10061695;29;20066;-72
2022/10/02 05:29:09;;;;;;;4.07;3.10;;;;;;;;;;10078843;29;20487;-73
2022/10/02 05:34:13;;;;;;;6.18;3.00;;;;;;;;;;10079357;29;20440;-72
2022/10/02 05:39:16;;;;;;;3.90;2.37;;;;;;;;;;10079009;29;20103;-72
2022/10/02 05:44:18;;;;;;;2.60;2.35;;;;;;;;;;10077985;29;20505;-71
2022/10/02 05:49:18;;;;;;;2.80;2.60;;;;;;;;;;10077870;29;20514;-71
2022/10/02 05:54:22;;;;;;;3.90;3.00;;;;;;;;;;10078246;29;20074;-71
2022/10/02 05:59:26;;;;;;;3.27;2.73;;;;;;;;;;10077419;28;20054;-71
2022/10/02 06:04:27;;;;;;;4.22;2.70;;;;;;;;;;10077273;29;20055;-72
2022/10/02 06:09:27;;;;;;;4.85;2.90;;;;;;;;;;10059490;28;20083;-70
2022/10/02 06:14:32;;;;;;;3.88;3.35;;;;;;;;;;10073094;28;20079;-71
2022/10/02 06:19:33;;;;;;;3.20;2.90;;;;;;;;;;10074833;28;20073;-71
2022/10/02 06:24:33;;;;;;;6.18;3.30;;;;;;;;;;10075397;29;20078;-72
2022/10/02 06:29:37;;;;;;;3.63;3.17;;;;;;;;;;10075794;29;20078;-71
2022/10/02 06:34:35;;;;;;;5.18;4.68;;;;;;;;;;10076916;29;20420;-69
2022/10/02 06:39:40;;;;;;;6.53;3.65;;;;;;;;;;10075972;29;20094;-70
2022/10/02 06:44:46;;;;;;;4.50;4.00;;;;;;;;;;10072354;29;20087;-71
2022/10/02 06:49:55;;;;;;;3.80;3.50;;;;;;;;;;10072572;29;20532;-71
2022/10/02 06:55:00;;;;;;;3.70;3.30;;;;;;;;;;10073073;29;20490;-72
2022/10/02 07:00:07;;;;;;;5.50;3.90;;;;;;;;;;10059483;29;20051;-70
2022/10/02 07:05:18;;;;;;;4.05;3.72;;;;;;;;;;10076369;29;20074;-70
2022/10/02 07:10:29;;;;;;;4.45;3.90;;;;;;;;;;10058224;28;20093;-71
2022/10/02 07:15:45;;;;;;;6.90;4.07;;;;;;;;;;10083259;29;20074;-70
2022/10/02 07:20:49;;;;;;;3.97;3.40;;;;;;;;;;10083972;29;20055;-70
2022/10/02 07:25:54;;;;;;;5.18;3.55;;;;;;;;;;10083884;29;20055;-69
2022/10/02 07:30:56;;;;;;;3.92;3.63;;;;;;;;;;10066264;29;20086;-71
2022/10/02 07:35:58;;;;;;;3.58;3.28;;;;;;;;;;10083689;29;20058;-70
2022/10/02 07:41:00;;;;;;;3.78;3.35;;;;;;;;;;10083444;29;20082;-70
2022/10/02 07:46:05;;;;;;;5.57;2.83;;;;;;;;;;10081789;28;20051;-70
2022/10/02 07:56:26;;;;;;;4.57;1.95;;;;;;;;;;10064279;29;20058;-71
2022/10/02 08:01:26;;;;;;;5.38;2.03;;;;;;;;;;10082080;29;20079;-69
2022/10/02 08:06:26;;;;;;;2.67;2.30;;;;;;;;;;10081584;29;20083;-71
2022/10/02 08:11:27;;;;;;;2.20;1.83;;;;;;;;;;10082232;29;20087;-71
2022/10/02 08:16:27;;;;;;;1.77;1.67;;;;;;;;;;10080977;29;20059;-70
2022/10/02 08:21:28;;;;;;;5.57;2.00;;;;;;;;;;10080767;28;20055;-70
2022/10/02 08:26:29;;;;;;;3.28;2.10;;;;;;;;;;10081342;29;20055;-69
2022/10/02 08:31:33;;;;;;;3.13;1.75;;;;;;;;;;10081607;29;20123;-70
2022/10/02 08:36:55;;;;;;;3.10;1.75;;;;;;;;;;10081518;29;20240;-70
2022/10/02 08:42:12;;;;;;;3.72;1.35;;;;;;;;;;10080279;29;20055;-70
2022/10/02 08:47:31;;;;;;;4.80;1.10;;;;;;;;;;10080910;29;20087;-69
2022/10/02 08:52:54;;;;;;;4.40;1.30;;;;;;;;;;10079976;29;20087;-71
2022/10/02 08:58:09;;;;;;;2.67;1.40;;;;;;;;;;10079257;29;20684;-70
2022/10/02 09:03:07;;;;;;;;;;;;;;;;;;10058967;28;20082;-68
2022/10/02 09:08:25;;;;;;;10.43;5.70;;;;;;;;;;10060492;28;19953;-71
2022/10/02 09:13:41;;;;;;;7.05;3.38;;;;;;;;;;10059641;28;20094;-68
2022/10/02 09:18:49;;;;;;;8.52;6.28;;;;;;;;;;10061947;28;20085;-68
2022/10/02 09:24:12;;;;;;;12.98;5.85;;;;;;;;;;10070597;28;20059;-67
2022/10/02 09:29:29;;;;;;;2.25;1.45;;;;;;;;;;10057070;29;20079;-68
2022/10/02 09:34:46;;;;;;;4.90;1.42;;;;;;;;;;10049091;29;20079;-69
2022/10/02 09:39:57;;;;;;;3.58;1.90;;;;;;;;;;10029902;29;20075;-70
2022/10/02 09:45:17;;;;;;;5.03;1.38;;;;;;;;;;10058393;29;20532;-69
2022/10/02 09:50:24;;;;;;;8.05;1.50;;;;;;;;;;10052733;29;20095;-72
2022/10/02 09:55:48;;;;;;;1.70;1.33;;;;;;;;;;10037610;29;20079;-71
2022/10/02 10:00:56;;;;;;;1.88;1.30;;;;;;;;;;10040624;29;20516;-72
2022/10/02 10:06:15;;;;;;;2.33;2.00;;;;;;;;;;10055866;29;20473;-71
2022/10/02 10:11:18;;;;;;;2.67;1.23;;;;;;;;;;10053785;29;20075;-70
2022/10/02 10:16:47;;;;;;;2.83;1.23;;;;;;;;;;10048647;29;20078;-71
2022/10/02 10:22:04;;;;;;;1.20;1.00;;;;;;;;;;10053284;29;20071;-70
2022/10/02 10:27:16;;;;;;;6.13;1.33;;;;;;;;;;10050360;29;20094;-73
2022/10/02 10:32:38;;;;;;;2.92;1.10;;;;;;;;;;10055771;28;20086;-72
2022/10/02 10:43:36;;;;;;;2.83;1.20;;;;;;;;;;10047183;28;20086;-73
2022/10/02 10:48:43;;;;;;;1.15;1.05;;;;;;;;;;10048422;29;20075;-73
2022/10/02 10:54:08;;;;;;;2.70;1.10;;;;;;;;;;10055394;29;20083;-73
2022/10/02 10:59:17;;;;;;;4.10;1.17;;;;;;;;;;10058128;29;20089;-72
2022/10/02 11:04:24;;;;;;;;;;;;;;;;;;10054337;29;20525;-71
2022/10/02 11:09:32;;;;;;;7.00;1.20;;;;;;;;;;10061265;28;19981;-71
2022/10/02 11:14:38;;;;;;;4.53;1.05;;;;;;;;;;10055223;29;20086;-71
2022/10/02 11:19:44;;;;;;;5.68;1.10;;;;;;;;;;10053212;29;20067;-71
2022/10/02 11:24:54;;;;;;;4.20;1.88;;;;;;;;;;10054217;29;20183;-69
2022/10/02 11:30:00;;;;;;;5.07;1.27;;;;;;;;;;10058587;28;20079;-69
2022/10/02 11:35:18;;;;;;;1.92;1.67;;;;;;;;;;10073994;29;20122;-71
2022/10/02 11:40:31;;;;;;;3.63;1.00;;;;;;;;;;10072799;29;20079;-71
2022/10/02 11:45:47;;;;;;;2.20;1.20;;;;;;;;;;10071832;28;20504;-73
2022/10/02 11:50:55;;;;;;;5.10;2.03;;;;;;;;;;10071224;29;20102;-73
2022/10/02 11:55:59;;;;;;;2.28;1.05;;;;;;;;;;10073358;29;20095;-72
2022/10/02 12:01:08;;;;;;;1.30;1.20;;;;;;;;;;10081389;28;20091;-70
2022/10/02 12:06:09;;;;;;;7.80;1.67;;;;;;;;;;10081486;29;20079;-69
2022/10/02 12:11:13;;;;;;;3.92;0.95;;;;;;;;;;10096480;28;20063;-72
2022/10/02 12:16:17;;;;;;;2.80;1.10;;;;;;;;;;10096851;28;20051;-71
2022/10/02 12:26:59;;;;;;;3.40;1.13;;;;;;;;;;10082362;28;20051;-70
2022/10/02 12:32:00;;;;;;;2.13;1.00;;;;;;;;;;10081584;29;20109;-72
2022/10/02 12:37:04;;;;;;;2.45;0.95;;;;;;;;;;10080865;29;20098;-71
2022/10/02 12:42:29;;;;;;;1.50;1.40;;;;;;;;;;10080661;29;20365;-71
2022/10/02 12:47:39;;;;;;;1.70;0.93;;;;;;;;;;10056846;28;20516;-71
2022/10/02 12:52:50;;;;;;;2.35;0.90;;;;;;;;;;10080627;28;20091;-72
2022/10/02 12:57:59;;;;;;;3.83;1.35;;;;;;;;;;10081045;28;20514;-70
2022/10/02 13:03:19;;;;;;;3.22;1.50;;;;;;;;;;10113167;28;20083;-72
2022/10/02 13:08:23;;;;;;;2.67;1.10;;;;;;;;;;10097112;28;20090;-70
2022/10/02 13:13:30;;;;;;;3.20;1.20;;;;;;;;;;10112983;28;20101;-70
2022/10/02 13:18:43;;;;;;;2.53;1.20;;;;;;;;;;10111932;28;20093;-71
2022/10/02 13:23:46;;;;;;;5.30;1.58;;;;;;;;;;10112111;28;20087;-69
2022/10/02 13:28:55;;;;;;;1.77;1.60;;;;;;;;;;10112938;28;20083;-69
2022/10/02 13:34:00;;;;;;;4.93;1.92;;;;;;;;;;10111549;28;20559;-72
2022/10/02 13:39:09;;;;;;;2.35;1.20;;;;;;;;;;10097165;28;20484;-72
2022/10/02 13:44:13;;;;;;;1.33;1.05;;;;;;;;;;10079376;28;20055;-71
2022/10/02 13:49:17;;;;;;;9.23;4.30;;;;;;;;;;10079730;28;20058;-71
2022/10/02 13:54:42;;;;;;;2.63;1.10;;;;;;;;;;10079729;29;20101;-72
2022/10/02 13:59:47;;;;;;;3.15;1.02;;;;;;;;;;10078010;29;20047;-72
2022/10/02 14:04:54;;;;;;;1.48;1.38;;;;;;;;;;10076970;29;20051;-70
2022/10/02 14:10:00;;;;;;;4.40;1.65;;;;;;;;;;10076873;29;20552;-71
2022/10/02 14:15:16;;;;;;;2.10;1.70;;;;;;;;;;10077127;29;20083;-72
2022/10/02 14:20:20;;;;;;;0.88;0.82;;;;;;;;;;10076129;28;20089;-70
2022/10/02 14:25:25;;;;;;;1.77;1.15;;;;;;;;;;10076756;29;20063;-71
2022/10/02 14:30:28;;;;;;;4.65;1.75;;;;;;;;;;10076361;29;20099;-71
2022/10/02 14:35:34;;;;;;;3.72;1.45;;;;;;;;;;10076320;29;20088;-71
2022/10/02 14:40:40;;;;;;;1.75;1.50;;;;;;;;;;10076069;29;20088;-71
2022/10/02 14:45:50;;;;;;;3.53;1.55;;;;;;;;;;10091567;28;20051;-71
2022/10/02 14:50:59;;;;;;;1.38;0.90;;;;;;;;;;10077003;28;20056;-71
2022/10/02 14:56:15;;;;;;;2.42;1.20;;;;;;;;;;10076116;28;20145;-72
2022/10/02 15:01:21;;;;;;;2.55;1.15;;;;;;;;;;10075933;29;20063;-71
2022/10/02 15:06:23;;;;;;;1.77;1.40;;;;;;;;;;10075418;28;20094;-70
2022/10/02 15:11:25;;;;;;;3.65;1.50;;;;;;;;;;10075791;29;20054;-71
2022/10/02 15:21:45;;;;;;;3.30;2.35;;;;;;;;;;10061708;28;20079;-72
2022/10/02 15:26:49;;;;;;;1.58;1.40;;;;;;;;;;10059282;29;20087;-71
2022/10/02 15:32:07;;;;;;;1.53;1.30;;;;;;;;;;10076041;28;20086;-71
2022/10/02 15:37:10;;;;;;;1.98;1.30;;;;;;;;;;10080893;28;20082;-70
2022/10/02 15:42:09;;;;;;;2.05;0.90;;;;;;;;;;10062433;29;20052;-71
2022/10/02 15:47:14;;;;;;;1.52;1.02;;;;;;;;;;10066925;28;20083;-71
2022/10/02 15:52:17;;;;;;;3.60;1.48;;;;;;;;;;10073399;28;20055;-71
2022/10/02 15:57:26;;;;;;;1.20;1.10;;;;;;;;;;10063408;29;20086;-71
2022/10/02 16:02:47;;;;;;;8.70;4.18;;;;;;;;;;10076824;28;20086;-72
2022/10/02 16:07:55;;;;;;;50.80;29.73;;;;;;;;;;10078105;28;20051;-71
2022/10/02 16:13:02;;;;;;;5.13;1.40;;;;;;;;;;10068934;28;20129;-71
2022/10/02 16:18:12;;;;;;;3.60;1.30;;;;;;;;;;10076990;29;20094;-72
2022/10/02 16:23:31;;;;;;;4.60;2.08;;;;;;;;;;10077357;29;20083;-70
2022/10/02 16:28:35;;;;;;;3.28;1.90;;;;;;;;;;10072068;29;20102;-71
2022/10/02 16:33:46;;;;;;;2.13;1.67;;;;;;;;;;10076740;29;20086;-71
2022/10/02 16:38:48;;;;;;;4.32;1.20;;;;;;;;;;10078742;29;20090;-72
2022/10/02 16:43:53;;;;;;;3.20;1.40;;;;;;;;;;10078975;28;20055;-71
2022/10/02 16:48:54;;;;;;;3.75;1.48;;;;;;;;;;10063723;29;20090;-71
2022/10/02 16:53:57;;;;;;;1.38;1.10;;;;;;;;;;10079846;29;20098;-72
2022/10/02 16:58:59;;;;;;;1.80;1.48;;;;;;;;;;10080879;29;20066;-72
2022/10/02 17:04:20;;;;;;;3.08;1.70;;;;;;;;;;10080491;29;20051;-71
2022/10/02 17:09:21;;;;;;;3.30;1.65;;;;;;;;;;10055878;29;20087;-70
2022/10/02 17:14:24;;;;;;;4.10;2.20;;;;;;;;;;10079789;29;20500;-71
2022/10/02 17:19:25;;;;;;;2.57;1.80;;;;;;;;;;10079778;29;20094;-71
2022/10/02 17:24:31;;;;;;;6.05;1.83;;;;;;;;;;10079445;29;20059;-70
2022/10/02 17:29:34;;;;;;;1.98;1.10;;;;;;;;;;10077641;29;20083;-71
2022/10/02 17:34:51;;;;;;;4.47;1.35;;;;;;;;;;10079344;29;20098;-72
2022/10/02 17:39:59;;;;;;;1.40;1.15;;;;;;;;;;10078824;28;20074;-72
2022/10/02 17:45:02;;;;;;;5.65;1.55;;;;;;;;;;10078757;29;20059;-71
2022/10/02 17:50:18;;;;;;;1.75;1.30;;;;;;;;;;10078773;29;20063;-71
2022/10/02 18:00:40;;;;;;;1.90;1.08;;;;;;;;;;10047264;29;20437;-71
2022/10/02 18:05:58;;;;;;;2.20;1.23;;;;;;;;;;10077789;29;20424;-71
2022/10/02 18:11:05;;;;;;;2.53;1.23;;;;;;;;;;10077546;29;20063;-72
2022/10/02 18:38:28;;;;;;;3.03;1.58;;;;;;;;;;10260615;23;20090;-72
2022/10/02 18:43:40;;;;;;;3.92;1.60;;;;;;;;;;10112055;28;20093;-70
2022/10/02 18:48:50;;;;;;;2.47;2.10;;;;;;;;;;10112285;28;20051;-71
2022/10/02 18:53:57;;;;;;;4.68;1.88;;;;;;;;;;10111438;28;20520;-67
2022/10/02 18:59:06;;;;;;;3.22;1.25;;;;;;;;;;10097495;28;20080;-67
2022/10/02 19:04:10;;;;;;;1.55;1.45;;;;;;;;;;10083442;28;20047;-70
2022/10/02 19:09:18;;;;;;;2.15;1.50;;;;;;;;;;10110001;28;20108;-68
2022/10/02 19:14:21;;;;;;;1.85;1.50;;;;;;;;;;10108132;28;20082;-69
2022/10/02 19:19:24;;;;;;;1.52;1.30;;;;;;;;;;10103284;28;20047;-69
2022/10/02 19:24:23;;;;;;;3.53;1.55;;;;;;;;;;10106238;28;20055;-68
2022/10/02 19:29:36;;;;;;;2.55;1.42;;;;;;;;;;10107618;28;20076;-68
2022/10/02 19:34:37;;;;;;;1.70;1.40;;;;;;;;;;10108634;28;20083;-67
2022/10/02 19:39:37;;;;;;;1.98;1.40;;;;;;;;;;10113626;28;20093;-69
2022/10/02 19:44:39;;;;;;;4.45;1.50;;;;;;;;;;10106427;28;20052;-71
2022/10/02 19:49:39;;;;;;;4.30;2.00;;;;;;;;;;10098985;28;20050;-68
2022/10/02 19:54:39;;;;;;;2.70;1.85;;;;;;;;;;10107983;28;20489;-68
2022/10/02 19:59:51;;;;;;;3.15;1.70;;;;;;;;;;10103681;28;20095;-69
2022/10/02 20:30:19;;;;;;;3.08;1.55;;;;;;;;;;10169637;23;20044;-67
2022/10/02 20:35:21;;;;;;;1.70;1.50;;;;;;;;;;10062916;29;20071;-68
2022/10/02 20:40:21;;;;;;;2.20;1.42;;;;;;;;;;10040114;29;20090;-68
2022/10/02 20:45:29;;;;;;;3.65;2.00;;;;;;;;;;10023675;29;20548;-70
2022/10/02 20:50:47;;;;;;;1.30;1.20;;;;;;;;;;10038441;29;20091;-69
2022/10/02 20:55:57;;;;;;;1.42;1.20;;;;;;;;;;10037953;29;20095;-69
2022/10/02 21:01:09;;;;;;;5.45;1.70;;;;;;;;;;10039472;29;20091;-69
2022/10/02 21:06:25;;;;;;;3.33;1.52;;;;;;;;;;10041099;29;20070;-69
2022/10/02 21:11:34;;;;;;;3.15;1.23;;;;;;;;;;10041614;29;20082;-68
2022/10/02 21:16:53;;;;;;;1.67;1.50;;;;;;;;;;10075774;23;20084;-68
2022/10/02 21:22:15;;;;;;;4.18;1.60;;;;;;;;;;9969577;29;20351;-69
2022/10/02 21:27:43;;;;;;;6.05;1.42;;;;;;;;;;9962879;29;20092;-69
2022/10/02 21:32:55;;;;;;;2.15;1.20;;;;;;;;;;9962004;29;20100;-69
2022/10/02 21:37:58;;;;;;;2.40;1.45;;;;;;;;;;9963207;29;20095;-69
2022/10/02 21:43:16;;;;;;;4.82;1.20;;;;;;;;;;9963310;29;20059;-68
2022/10/02 21:48:34;;;;;;;2.28;1.67;;;;;;;;;;9963038;29;20056;-68
2022/10/02 21:53:49;;;;;;;3.47;1.27;;;;;;;;;;9962236;29;20084;-69
2022/10/02 21:59:17;;;;;;;2.33;1.40;;;;;;;;;;9962624;29;20498;-68
2022/10/02 22:04:34;;;;;;;2.97;1.70;;;;;;;;;;9962512;29;20051;-69
2022/10/02 22:09:46;;;;;;;1.85;1.50;;;;;;;;;;9961899;29;20095;-69
2022/10/02 22:14:48;;;;;;;1.63;1.30;;;;;;;;;;9961823;29;20099;-67
2022/10/02 22:20:09;;;;;;;5.35;1.65;;;;;;;;;;9960066;29;20053;-68
2022/10/02 22:25:12;;;;;;;2.90;1.30;;;;;;;;;;9961828;29;20107;-68
2022/10/02 22:30:19;;;;;;;3.40;1.30;;;;;;;;;;9944507;29;20052;-68
2022/10/02 22:35:24;;;;;;;4.10;1.35;;;;;;;;;;9961602;29;20087;-68
2022/10/02 22:40:25;;;;;;;2.35;1.40;;;;;;;;;;9961475;29;20073;-68
2022/10/02 22:45:26;;;;;;;2.17;1.40;;;;;;;;;;9961241;29;20076;-67
2022/10/02 22:50:29;;;;;;;2.47;1.20;;;;;;;;;;9961391;29;20056;-68
2022/10/02 22:55:28;;;;;;;2.17;1.50;;;;;;;;;;9960530;29;20186;-69
2022/10/02 23:00:30;;;;;;;1.90;1.42;;;;;;;;;;9959961;29;20056;-68
2022/10/02 23:05:32;;;;;;;4.40;1.70;;;;;;;;;;9943442;29;20058;-71
2022/10/02 23:10:34;;;;;;;3.00;1.80;;;;;;;;;;9960884;29;20088;-67
2022/10/02 23:15:56;;;;;;;6.78;1.70;;;;;;;;;;9959961;29;20084;-68
2022/10/02 23:21:16;;;;;;;3.38;1.10;;;;;;;;;;9950366;29;20100;-69
2022/10/02 23:26:18;;;;;;;2.42;1.20;;;;;;;;;;9959709;29;20062;-68
2022/10/02 23:31:20;;;;;;;5.63;1.10;;;;;;;;;;9959344;29;20087;-68
2022/10/02 23:36:23;;;;;;;4.47;1.50;;;;;;;;;;9958715;29;20095;-69
2022/10/02 23:41:45;;;;;;;1.70;1.23;;;;;;;;;;9959266;29;20049;-68
2022/10/02 23:46:52;;;;;;;1.65;1.30;;;;;;;;;;9959715;29;20057;-68
2022/10/02 23:51:57;;;;;;;2.92;1.30;;;;;;;;;;9959116;29;20049;-68
2022/10/02 23:57:07;;;;;;;2.45;1.10;;;;;;;;;;9965952;29;20095;-68
